createdAt,value
2023-10-09T00:02:50.534Z,11.17
2023-10-09T00:07:57.146Z,11.22
2023-10-09T00:12:59.334Z,11.09
2023-10-09T00:18:01.206Z,11.23
2023-10-09T00:23:03.237Z,11.13
2023-10-09T00:28:19.959Z,11.00
2023-10-09T00:33:23.506Z,11.03
2023-10-09T00:38:28.134Z,11.04
2023-10-09T00:43:30.960Z,11.20
2023-10-09T00:48:39.038Z,11.22
2023-10-09T00:53:41.003Z,10.91
2023-10-09T00:58:44.492Z,10.91
2023-10-09T01:03:46.761Z,10.78
2023-10-09T01:08:58.115Z,10.85
2023-10-09T01:14:08.874Z,10.88
2023-10-09T01:19:14.537Z,10.74
2023-10-09T01:24:17.626Z,10.88
2023-10-09T01:29:28.755Z,10.76
2023-10-09T01:34:45.389Z,10.84
2023-10-09T01:39:49.481Z,10.74
2023-10-09T01:44:54.496Z,10.77
2023-10-09T01:49:59.153Z,10.61
2023-10-09T01:55:07.925Z,10.66
2023-10-09T02:00:11.124Z,10.59
2023-10-09T02:05:15.904Z,10.72
2023-10-09T02:10:31.497Z,10.86
2023-10-09T02:15:43.890Z,11.01
2023-10-09T02:20:47.158Z,10.95
2023-10-09T02:25:54.333Z,10.77
2023-10-09T02:31:01.816Z,10.96
2023-10-09T02:36:06.635Z,10.99
2023-10-09T02:41:14.708Z,10.97
2023-10-09T02:46:20.745Z,10.97
2023-10-09T02:51:44.244Z,10.93
2023-10-09T02:57:08.774Z,11.00
2023-10-09T03:02:12.145Z,10.89
2023-10-09T03:07:16.710Z,10.90
2023-10-09T03:12:20.099Z,10.88
2023-10-09T03:17:21.987Z,10.76
2023-10-09T03:22:27.879Z,10.88
2023-10-09T03:27:29.842Z,10.98
2023-10-09T03:32:31.741Z,10.98
2023-10-09T03:37:36.533Z,10.93
2023-10-09T03:42:39.370Z,10.76
2023-10-09T03:47:44.317Z,10.59
2023-10-09T03:52:46.271Z,10.51
2023-10-09T03:57:49.218Z,10.61
2023-10-09T04:02:51.950Z,11.03
2023-10-09T04:07:58.173Z,10.81
2023-10-09T04:13:01.671Z,10.64
2023-10-09T04:18:06.231Z,10.60
2023-10-09T04:23:08.374Z,11.01
2023-10-09T04:28:12.979Z,10.89
2023-10-09T04:33:35.235Z,10.99
2023-10-09T04:38:38.345Z,11.09
2023-10-09T04:43:45.745Z,10.78
2023-10-09T04:48:47.638Z,10.95
2023-10-09T04:54:14.200Z,11.09
2023-10-09T04:59:19.562Z,11.09
2023-10-09T05:04:36.713Z,11.03
2023-10-09T05:09:56.839Z,10.85
2023-10-09T05:15:19.043Z,10.95
2023-10-09T05:20:26.798Z,11.25
2023-10-09T05:25:52.197Z,11.02
2023-10-09T05:31:09.257Z,10.76
2023-10-09T05:36:26.290Z,10.95
2023-10-09T05:41:46.511Z,10.79
2023-10-09T05:47:11.080Z,10.67
2023-10-09T05:52:36.476Z,11.09
2023-10-09T05:57:56.427Z,11.07
2023-10-09T06:03:16.847Z,10.86
2023-10-09T06:08:26.189Z,10.98
2023-10-09T06:13:38.666Z,10.84
2023-10-09T06:18:44.845Z,11.02
2023-10-09T06:24:10.790Z,11.14
2023-10-09T06:29:15.852Z,11.05
2023-10-09T06:34:17.752Z,11.41
2023-10-09T06:39:38.558Z,11.42
2023-10-09T06:44:55.408Z,11.27
2023-10-09T06:50:15.899Z,11.23
2023-10-09T06:55:20.927Z,11.20
2023-10-09T07:00:41.149Z,11.32
2023-10-09T07:06:01.463Z,11.41
2023-10-09T07:11:21.969Z,11.37
2023-10-09T07:16:39.238Z,11.41
2023-10-09T07:21:52.993Z,11.36
2023-10-09T07:26:56.267Z,11.39
2023-10-09T07:32:13.607Z,11.66
2023-10-09T07:37:20.372Z,11.48
2023-10-09T07:42:34.684Z,11.50
2023-10-09T07:47:58.987Z,11.52
2023-10-09T07:53:16.158Z,11.49
2023-10-09T07:58:24.935Z,11.47
2023-10-09T08:03:27.128Z,11.73
2023-10-09T08:08:39.048Z,11.77
2023-10-09T08:13:50.707Z,12.37
2023-10-09T08:18:53.088Z,13.04
2023-10-09T08:23:55.753Z,13.52
2023-10-09T08:29:16.064Z,13.90
2023-10-09T08:39:36.206Z,13.98
2023-10-09T08:44:40.543Z,14.06
2023-10-09T08:49:43.515Z,14.03
2023-10-09T08:54:45.448Z,14.00
2023-10-09T08:59:48.076Z,13.86
2023-10-09T09:04:52.009Z,13.87
2023-10-09T09:10:21.645Z,13.88
2023-10-09T09:15:27.972Z,13.96
2023-10-09T09:20:35.847Z,13.83
2023-10-09T09:25:46.665Z,13.89
2023-10-09T09:30:52.522Z,13.82
2023-10-09T09:36:06.029Z,13.87
2023-10-09T09:41:08.651Z,13.89
2023-10-09T09:46:13.077Z,13.86
2023-10-09T09:51:16.018Z,14.02
2023-10-09T09:56:22.728Z,13.96
2023-10-09T10:01:26.848Z,13.89
2023-10-09T10:06:33.489Z,14.01
2023-10-09T10:17:30.598Z,14.01
2023-10-09T10:22:34.103Z,14.08
2023-10-09T10:27:46.103Z,14.05
2023-10-09T10:32:53.981Z,14.00
2023-10-09T10:38:11.711Z,14.09
2023-10-09T10:43:33.399Z,14.02
2023-10-09T10:48:39.776Z,14.03
2023-10-09T10:53:59.105Z,14.06
2023-10-09T10:59:07.194Z,14.22
2023-10-09T11:04:14.262Z,14.25
2023-10-09T11:09:23.040Z,14.31
2023-10-09T11:14:25.411Z,14.27
2023-10-09T11:19:31.073Z,14.37
2023-10-09T11:24:36.702Z,14.39
2023-10-09T11:29:52.523Z,14.34
2023-10-09T11:35:29.649Z,14.11
2023-10-09T11:40:51.958Z,14.34
2023-10-09T11:45:57.120Z,14.17
2023-10-09T11:51:04.426Z,14.02
2023-10-09T11:56:06.151Z,14.13
2023-10-09T12:01:18.958Z,14.17
2023-10-09T12:06:25.426Z,14.19
2023-10-09T12:11:30.833Z,14.36
2023-10-09T12:16:34.354Z,14.49
2023-10-09T12:21:37.968Z,14.54
2023-10-09T12:26:41.831Z,14.50
2023-10-09T12:31:46.549Z,14.53
2023-10-09T12:36:48.410Z,14.32
2023-10-09T12:41:54.624Z,14.28
2023-10-09T12:46:57.694Z,14.43
2023-10-09T12:51:59.918Z,14.42
2023-10-09T12:57:01.621Z,14.44
2023-10-09T13:02:06.832Z,14.55
2023-10-09T13:07:09.211Z,14.56
2023-10-09T13:12:19.359Z,14.62
2023-10-09T13:17:23.138Z,14.52
2023-10-09T13:22:26.363Z,14.58
2023-10-09T13:27:32.813Z,14.48
2023-10-09T13:32:36.966Z,14.64
2023-10-09T13:37:38.826Z,14.59
2023-10-09T13:42:40.570Z,14.65
2023-10-09T13:47:45.947Z,14.35
2023-10-09T13:52:47.892Z,14.41
2023-10-09T13:57:49.690Z,14.38
2023-10-09T14:02:52.896Z,14.52
2023-10-09T14:08:01.234Z,14.58
2023-10-09T14:13:13.205Z,14.58
2023-10-09T14:18:16.085Z,14.73
2023-10-09T14:23:21.690Z,14.80
2023-10-09T14:28:29.287Z,14.86
2023-10-09T14:33:37.559Z,14.73
2023-10-09T14:38:40.095Z,14.80
2023-10-09T14:43:42.333Z,14.52
2023-10-09T14:48:47.152Z,14.44
2023-10-09T14:53:50.612Z,14.50
2023-10-09T14:58:52.575Z,14.57
2023-10-09T15:03:56.606Z,14.30
2023-10-09T15:09:09.045Z,14.17
2023-10-09T15:14:11.055Z,14.22
2023-10-09T15:19:13.197Z,14.25
2023-10-09T15:24:20.995Z,14.19
2023-10-09T15:29:29.254Z,14.15
2023-10-09T15:34:37.406Z,14.26
2023-10-09T15:39:39.241Z,14.17
2023-10-09T15:44:42.408Z,14.13
2023-10-09T15:49:45.364Z,14.11
2023-10-09T15:54:49.182Z,14.15
2023-10-09T15:59:51.661Z,14.02
2023-10-09T16:04:54.151Z,14.14
2023-10-09T16:09:56.642Z,14.04
2023-10-09T16:14:58.630Z,14.10
2023-10-09T16:20:01.354Z,14.09
2023-10-09T16:25:05.656Z,14.02
2023-10-09T16:30:13.764Z,14.05
2023-10-09T16:35:15.574Z,14.02
2023-10-09T16:40:21.572Z,13.98
2023-10-09T16:45:27.683Z,13.88
2023-10-09T16:50:29.953Z,13.93
2023-10-09T16:55:32.100Z,14.01
2023-10-09T17:00:37.020Z,14.13
2023-10-09T17:05:56.294Z,14.17
2023-10-09T17:10:58.705Z,14.19
2023-10-09T17:16:00.561Z,14.21
2023-10-09T17:21:04.808Z,14.28
2023-10-09T17:26:06.632Z,14.32
2023-10-09T17:31:08.631Z,14.22
2023-10-09T17:36:12.927Z,14.47
2023-10-09T17:41:16.444Z,14.48
2023-10-09T17:46:18.989Z,14.67
2023-10-09T17:51:21.220Z,14.76
2023-10-09T17:56:27.241Z,14.67
2023-10-09T18:01:30.917Z,14.69
2023-10-09T18:06:36.189Z,14.86
2023-10-09T18:11:37.909Z,14.76
2023-10-09T18:16:42.362Z,14.82
2023-10-09T18:21:44.324Z,14.66
2023-10-09T18:26:54.468Z,14.77
2023-10-09T18:31:56.445Z,14.85
2023-10-09T18:36:58.288Z,14.95
2023-10-09T18:42:00.249Z,14.88
2023-10-09T18:47:02.184Z,14.90
2023-10-09T18:52:06.971Z,14.97
2023-10-09T18:57:08.732Z,15.01
2023-10-09T19:02:12.757Z,14.94
2023-10-09T19:07:14.826Z,15.06
2023-10-09T19:12:16.585Z,15.11
2023-10-09T19:17:20.286Z,15.00
2023-10-09T19:22:25.532Z,15.25
2023-10-09T19:27:30.248Z,15.11
2023-10-09T19:32:32.037Z,15.17
2023-10-09T19:37:34.127Z,15.14
2023-10-09T19:42:37.898Z,15.17
2023-10-09T19:47:41.056Z,15.25
2023-10-09T19:52:43.958Z,15.14
2023-10-09T19:57:45.742Z,15.25
2023-10-09T20:02:47.654Z,15.20
2023-10-09T20:07:49.812Z,15.21
2023-10-09T20:12:52.196Z,15.18
2023-10-09T20:17:54.018Z,15.16
2023-10-09T20:22:56.062Z,15.35
2023-10-09T20:27:58.069Z,15.31
2023-10-09T20:33:00.042Z,15.34
2023-10-09T20:38:04.937Z,15.28
2023-10-09T20:43:06.818Z,15.28
2023-10-09T20:48:08.752Z,15.30
2023-10-09T20:53:10.614Z,15.31
2023-10-09T20:58:12.470Z,15.20
2023-10-09T21:03:16.980Z,15.19
2023-10-09T21:08:19.435Z,15.18
2023-10-09T21:13:21.362Z,15.22
2023-10-09T21:18:23.343Z,15.38
2023-10-09T21:23:25.286Z,15.20
2023-10-09T21:28:27.045Z,15.29
2023-10-09T21:33:30.158Z,15.26
2023-10-09T21:38:32.128Z,15.21
2023-10-09T21:43:33.946Z,15.34
2023-10-09T21:48:36.900Z,15.20
2023-10-09T21:53:40.771Z,15.30
2023-10-09T21:58:43.443Z,15.42
2023-10-09T22:03:46.571Z,15.38
2023-10-09T22:08:48.417Z,15.32
2023-10-09T22:13:50.916Z,15.33
2023-10-09T22:19:03.341Z,15.45
2023-10-09T22:24:19.241Z,15.43
2023-10-09T22:29:21.463Z,15.42
2023-10-09T22:34:23.266Z,15.39
2023-10-09T22:39:34.333Z,15.24
2023-10-09T22:44:39.281Z,15.35
2023-10-09T22:49:42.814Z,15.30
2023-10-09T22:54:46.668Z,15.36
2023-10-09T22:59:52.991Z,15.43
2023-10-09T23:04:57.134Z,15.32
2023-10-09T23:10:16.153Z,15.44
2023-10-09T23:15:34.256Z,15.44
2023-10-09T23:20:49.841Z,15.30
2023-10-09T23:25:54.367Z,15.19
2023-10-09T23:30:58.263Z,15.25
2023-10-09T23:36:06.061Z,15.25
2023-10-09T23:41:11.492Z,15.34
2023-10-09T23:46:18.399Z,15.46
2023-10-09T23:51:20.794Z,15.28
2023-10-09T23:56:41.209Z,15.29
